createdAt,value
2023-02-23T00:01:50.355Z,11.77
2023-02-23T00:04:21.122Z,11.72
2023-02-23T00:06:52.386Z,11.72
2023-02-23T00:09:25.688Z,11.71
2023-02-23T00:12:00.337Z,11.71
2023-02-23T00:14:31.989Z,11.70
2023-02-23T00:17:02.542Z,11.70
2023-02-23T00:19:33.675Z,11.70
2023-02-23T00:22:03.650Z,11.70
2023-02-23T00:24:33.688Z,11.68
2023-02-23T00:27:07.130Z,11.70
2023-02-23T00:29:40.733Z,11.69
2023-02-23T00:32:11.398Z,11.70
2023-02-23T00:34:41.990Z,11.69
2023-02-23T00:37:12.483Z,11.67
2023-02-23T00:39:42.392Z,11.69
2023-02-23T00:42:15.714Z,11.66
2023-02-23T00:44:47.728Z,11.65
2023-02-23T00:47:17.852Z,11.62
2023-02-23T00:49:47.984Z,11.60
2023-02-23T00:52:18.027Z,11.60
2023-02-23T00:54:48.106Z,11.60
2023-02-23T00:57:20.700Z,11.60
2023-02-23T00:59:50.654Z,11.55
2023-02-23T01:02:20.600Z,11.53
2023-02-23T01:04:50.974Z,11.53
2023-02-23T01:07:21.053Z,11.53
2023-02-23T01:09:51.254Z,11.51
2023-02-23T01:12:23.886Z,11.50
2023-02-23T01:14:54.139Z,11.49
2023-02-23T01:17:24.218Z,11.47
2023-02-23T01:19:55.464Z,11.42
2023-02-23T01:22:25.418Z,11.44
2023-02-23T01:24:55.472Z,11.46
2023-02-23T01:27:29.464Z,11.46
2023-02-23T01:29:59.479Z,11.44
2023-02-23T01:32:29.558Z,11.44
2023-02-23T01:34:59.555Z,11.41
2023-02-23T01:37:29.557Z,11.41
2023-02-23T01:39:59.504Z,11.39
2023-02-23T01:42:32.138Z,11.38
2023-02-23T01:45:35.166Z,11.35
2023-02-23T01:48:12.649Z,11.37
2023-02-23T01:50:48.820Z,11.38
2023-02-23T01:53:21.719Z,11.38
2023-02-23T01:55:55.247Z,11.35
2023-02-23T01:58:30.066Z,11.35
2023-02-23T02:01:03.806Z,11.36
2023-02-23T02:03:38.358Z,11.33
2023-02-23T02:06:11.744Z,11.35
2023-02-23T02:08:45.649Z,11.34
2023-02-23T02:11:26.395Z,11.33
2023-02-23T02:14:03.521Z,11.33
2023-02-23T02:16:45.817Z,11.28
2023-02-23T02:19:58.775Z,11.26
2023-02-23T02:23:16.352Z,11.24
2023-02-23T02:26:05.589Z,11.27
2023-02-23T02:29:09.515Z,11.29
2023-02-23T02:32:15.120Z,11.30
2023-02-23T02:35:14.096Z,11.33
2023-02-23T02:38:01.987Z,11.36
2023-02-23T02:40:40.369Z,11.37
2023-02-23T02:43:24.501Z,11.39
2023-02-23T02:45:58.785Z,11.41
2023-02-23T02:48:42.380Z,11.41
2023-02-23T02:51:21.488Z,11.43
2023-02-23T02:54:09.472Z,11.45
2023-02-23T02:56:42.114Z,11.47
2023-02-23T02:59:28.832Z,11.48
2023-02-23T03:02:12.245Z,11.46
2023-02-23T03:04:54.800Z,11.48
2023-02-23T03:07:46.691Z,11.47
2023-02-23T03:10:43.745Z,11.47
2023-02-23T03:13:34.506Z,11.45
2023-02-23T03:16:27.770Z,11.43
2023-02-23T03:19:26.754Z,11.42
2023-02-23T03:22:15.872Z,11.39
2023-02-23T03:25:06.314Z,11.33
2023-02-23T03:28:01.441Z,11.31
2023-02-23T03:30:52.846Z,11.30
2023-02-23T03:33:45.649Z,11.30
2023-02-23T03:36:32.416Z,11.28
2023-02-23T03:39:20.259Z,11.26
2023-02-23T03:42:04.477Z,11.26
2023-02-23T03:44:55.440Z,11.26
2023-02-23T03:47:44.913Z,11.24
2023-02-23T03:50:33.457Z,11.23
2023-02-23T03:53:18.460Z,11.26
2023-02-23T03:56:06.411Z,11.22
2023-02-23T03:58:54.022Z,11.21
2023-02-23T04:01:42.447Z,11.18
2023-02-23T04:04:26.424Z,11.19
2023-02-23T04:07:11.484Z,11.21
2023-02-23T04:09:54.028Z,11.21
2023-02-23T04:12:45.486Z,11.19
2023-02-23T04:15:20.947Z,11.17
2023-02-23T04:17:55.670Z,11.19
2023-02-23T04:20:28.184Z,11.18
2023-02-23T04:22:58.459Z,11.18
2023-02-23T04:25:28.826Z,11.18
2023-02-23T04:27:59.165Z,11.18
2023-02-23T04:30:29.809Z,11.18
2023-02-23T04:33:02.724Z,11.15
2023-02-23T04:35:33.340Z,11.15
2023-02-23T04:38:05.339Z,11.14
2023-02-23T04:40:35.762Z,11.13
2023-02-23T04:43:06.296Z,11.13
2023-02-23T04:45:36.920Z,11.16
2023-02-23T04:48:10.362Z,11.16
2023-02-23T04:50:43.070Z,11.16
2023-02-23T04:53:13.265Z,11.14
2023-02-23T04:55:43.461Z,11.15
2023-02-23T04:58:15.639Z,11.13
2023-02-23T05:00:47.626Z,11.12
2023-02-23T05:03:20.584Z,11.11
2023-02-23T05:05:50.773Z,11.10
2023-02-23T05:08:21.036Z,11.12
2023-02-23T05:10:51.133Z,11.12
2023-02-23T05:13:21.238Z,11.12
2023-02-23T05:15:51.946Z,11.14
2023-02-23T05:18:27.476Z,11.10
2023-02-23T05:21:04.524Z,11.06
2023-02-23T05:23:35.242Z,11.09
2023-02-23T05:26:06.529Z,11.05
2023-02-23T05:28:38.904Z,11.05
2023-02-23T05:31:11.664Z,11.04
2023-02-23T05:33:46.036Z,11.07
2023-02-23T05:36:18.361Z,11.06
2023-02-23T05:38:49.901Z,11.08
2023-02-23T05:41:22.665Z,11.09
2023-02-23T05:43:54.843Z,11.14
2023-02-23T05:46:27.717Z,11.12
2023-02-23T05:49:03.546Z,11.19
2023-02-23T05:51:37.101Z,11.20
2023-02-23T05:54:07.879Z,11.21
2023-02-23T05:56:37.919Z,11.24
2023-02-23T05:59:08.230Z,11.23
2023-02-23T06:01:38.892Z,11.25
2023-02-23T06:04:14.374Z,11.24
2023-02-23T06:06:45.587Z,11.25
2023-02-23T06:09:16.103Z,11.29
2023-02-23T06:11:46.253Z,11.26
2023-02-23T06:14:16.635Z,11.30
2023-02-23T06:16:49.153Z,11.27
2023-02-23T06:19:22.206Z,11.25
2023-02-23T06:21:53.294Z,11.25
2023-02-23T06:24:24.213Z,11.24
2023-02-23T06:26:55.146Z,11.22
2023-02-23T06:29:25.400Z,11.18
2023-02-23T06:31:55.847Z,11.16
2023-02-23T06:34:29.170Z,11.12
2023-02-23T06:36:59.428Z,11.07
2023-02-23T06:39:29.635Z,11.08
2023-02-23T06:42:00.556Z,11.04
2023-02-23T06:44:30.779Z,11.01
2023-02-23T06:47:06.096Z,11.00
2023-02-23T06:49:40.807Z,10.96
2023-02-23T06:52:13.818Z,10.89
2023-02-23T06:54:44.742Z,10.87
2023-02-23T06:57:14.944Z,10.84
2023-02-23T06:59:45.484Z,10.74
2023-02-23T07:02:16.937Z,10.68
2023-02-23T07:04:51.090Z,10.66
2023-02-23T07:07:25.062Z,10.60
2023-02-23T07:09:55.238Z,10.60
2023-02-23T07:12:29.086Z,10.56
2023-02-23T07:14:59.254Z,10.57
2023-02-23T07:17:29.300Z,10.52
2023-02-23T07:20:02.042Z,10.47
2023-02-23T07:22:34.332Z,10.44
2023-02-23T07:25:04.852Z,10.43
2023-02-23T07:27:35.174Z,10.42
2023-02-23T07:30:06.057Z,10.43
2023-02-23T07:32:38.000Z,10.42
2023-02-23T07:35:13.768Z,10.35
2023-02-23T07:37:43.792Z,10.34
2023-02-23T07:40:15.247Z,10.36
2023-02-23T07:42:45.468Z,10.36
2023-02-23T07:45:15.685Z,10.31
2023-02-23T07:47:45.832Z,10.29
2023-02-23T07:50:18.646Z,10.28
2023-02-23T07:52:48.683Z,10.26
2023-02-23T07:55:18.671Z,10.26
2023-02-23T07:57:48.750Z,10.25
2023-02-23T08:00:19.548Z,10.25
2023-02-23T08:02:49.453Z,10.28
2023-02-23T08:05:22.799Z,10.29
2023-02-23T08:07:53.525Z,10.29
2023-02-23T08:10:23.622Z,10.30
2023-02-23T08:12:53.792Z,10.32
2023-02-23T08:15:23.735Z,10.31
2023-02-23T08:17:53.871Z,10.30
2023-02-23T08:20:27.964Z,10.26
2023-02-23T08:22:58.729Z,10.24
2023-02-23T08:25:29.338Z,10.22
2023-02-23T08:28:04.726Z,10.22
2023-02-23T08:30:38.742Z,10.18
2023-02-23T08:33:08.779Z,10.18
2023-02-23T08:35:41.468Z,10.19
2023-02-23T08:38:11.462Z,10.24
2023-02-23T08:40:41.797Z,10.25
2023-02-23T08:43:11.814Z,10.26
2023-02-23T08:45:41.932Z,10.28
2023-02-23T08:48:11.963Z,10.27
2023-02-23T08:50:44.552Z,10.27
2023-02-23T08:53:14.591Z,10.30
2023-02-23T08:55:44.609Z,10.34
2023-02-23T08:58:14.875Z,10.36
2023-02-23T09:00:44.937Z,10.39
2023-02-23T09:03:15.044Z,10.42
2023-02-23T09:05:47.884Z,10.40
2023-02-23T09:08:18.839Z,10.38
2023-02-23T09:10:48.775Z,10.43
2023-02-23T09:13:18.840Z,10.46
2023-02-23T09:15:49.084Z,10.43
2023-02-23T09:18:19.206Z,10.41
2023-02-23T09:20:52.035Z,10.41
2023-02-23T09:23:22.220Z,10.42
2023-02-23T09:25:52.150Z,10.37
2023-02-23T09:28:24.305Z,10.37
2023-02-23T09:30:54.376Z,10.38
2023-02-23T09:33:24.559Z,10.36
2023-02-23T09:35:57.227Z,10.40
2023-02-23T09:38:27.436Z,10.47
2023-02-23T09:40:57.926Z,10.52
2023-02-23T09:43:35.173Z,10.53
2023-02-23T09:46:17.152Z,10.53
2023-02-23T09:48:47.237Z,10.56
2023-02-23T09:51:24.694Z,10.57
2023-02-23T09:53:58.276Z,10.61
2023-02-23T09:56:36.074Z,10.67
2023-02-23T09:59:10.013Z,10.68
2023-02-23T10:02:08.507Z,10.66
2023-02-23T10:04:43.821Z,10.69
2023-02-23T10:07:23.822Z,10.63
2023-02-23T10:10:13.581Z,10.64
2023-02-23T10:12:53.462Z,10.59
2023-02-23T10:15:32.002Z,10.59
2023-02-23T10:18:17.893Z,10.57
2023-02-23T10:20:53.866Z,10.60
2023-02-23T10:23:32.012Z,10.53
2023-02-23T10:26:05.343Z,10.53
2023-02-23T10:28:39.198Z,10.50
2023-02-23T10:31:26.355Z,10.50
2023-02-23T10:33:58.852Z,10.56
2023-02-23T10:36:40.596Z,10.57
2023-02-23T10:39:16.337Z,10.59
2023-02-23T10:41:47.261Z,10.66
2023-02-23T10:44:22.998Z,10.68
2023-02-23T10:46:57.396Z,10.65
2023-02-23T10:49:32.801Z,10.64
2023-02-23T10:52:03.224Z,10.54
2023-02-23T10:54:47.900Z,10.50
2023-02-23T10:57:28.099Z,10.46
2023-02-23T11:00:32.927Z,10.50
2023-02-23T11:03:06.327Z,10.54
2023-02-23T11:05:47.354Z,10.58
2023-02-23T11:08:30.382Z,10.58
2023-02-23T11:11:09.286Z,10.58
2023-02-23T11:13:42.634Z,10.60
2023-02-23T11:16:16.048Z,10.55
2023-02-23T11:18:54.936Z,10.52
2023-02-23T11:21:29.772Z,10.52
2023-02-23T11:24:02.389Z,10.55
2023-02-23T11:26:41.344Z,10.53
2023-02-23T11:29:24.236Z,10.51
2023-02-23T11:31:57.023Z,10.59
2023-02-23T11:34:32.891Z,10.61
2023-02-23T11:37:07.088Z,10.58
2023-02-23T11:39:38.799Z,10.58
2023-02-23T11:42:19.887Z,10.56
2023-02-23T11:45:06.218Z,10.58
2023-02-23T11:47:41.447Z,10.63
2023-02-23T11:50:24.046Z,10.60
2023-02-23T11:53:01.126Z,10.67
2023-02-23T11:55:33.213Z,10.64
2023-02-23T11:58:28.652Z,10.58
2023-02-23T12:01:00.006Z,10.65
2023-02-23T12:03:33.029Z,10.58
2023-02-23T12:06:03.109Z,10.53
2023-02-23T12:08:42.509Z,10.49
2023-02-23T12:11:18.420Z,10.53
2023-02-23T12:13:57.027Z,10.53
2023-02-23T12:16:31.320Z,10.57
2023-02-23T12:19:06.298Z,10.60
2023-02-23T12:21:39.009Z,10.62
2023-02-23T12:24:27.609Z,10.59
2023-02-23T12:27:02.259Z,10.61
2023-02-23T12:29:44.864Z,10.56
2023-02-23T12:32:17.652Z,10.61
2023-02-23T12:34:55.013Z,10.59
2023-02-23T12:37:37.544Z,10.57
2023-02-23T12:40:19.601Z,10.55
2023-02-23T12:42:59.710Z,10.57
2023-02-23T12:45:41.545Z,10.56
2023-02-23T12:48:21.624Z,10.56
2023-02-23T12:50:55.650Z,10.54
2023-02-23T12:53:32.218Z,10.55
2023-02-23T12:56:15.981Z,10.54
2023-02-23T12:58:54.516Z,10.53
2023-02-23T13:01:31.068Z,10.52
2023-02-23T13:04:22.641Z,10.42
2023-02-23T13:07:03.747Z,10.47
2023-02-23T13:09:46.663Z,10.47
2023-02-23T13:12:39.416Z,10.45
2023-02-23T13:15:22.452Z,10.49
2023-02-23T13:18:01.721Z,10.48
2023-02-23T13:20:39.096Z,10.48
2023-02-23T13:23:17.308Z,10.48
2023-02-23T13:25:55.835Z,10.52
2023-02-23T13:28:39.598Z,10.53
2023-02-23T13:31:28.535Z,10.54
2023-02-23T13:34:04.421Z,10.63
2023-02-23T13:36:37.130Z,10.61
2023-02-23T13:39:27.317Z,10.63
2023-02-23T13:42:10.748Z,10.64
2023-02-23T13:44:47.457Z,10.64
2023-02-23T13:47:34.931Z,10.56
2023-02-23T13:50:16.569Z,10.60
2023-02-23T13:52:49.447Z,10.63
2023-02-23T13:55:54.374Z,10.61
2023-02-23T13:58:31.909Z,10.64
2023-02-23T14:01:19.151Z,10.61
2023-02-23T14:03:56.988Z,10.62
2023-02-23T14:06:32.661Z,10.58
2023-02-23T14:09:10.454Z,10.53
2023-02-23T14:11:52.238Z,10.46
2023-02-23T14:14:47.400Z,10.38
2023-02-23T14:17:41.627Z,10.42
2023-02-23T14:20:45.895Z,10.45
2023-02-23T14:23:51.469Z,10.42
2023-02-23T14:26:43.934Z,10.37
2023-02-23T14:29:35.010Z,10.40
2023-02-23T14:32:27.450Z,10.45
2023-02-23T14:34:59.992Z,10.45
2023-02-23T14:37:34.104Z,10.42
2023-02-23T14:40:14.734Z,10.44
2023-02-23T14:42:49.098Z,10.49
2023-02-23T14:45:25.785Z,10.52
2023-02-23T14:48:00.069Z,10.53
2023-02-23T14:50:32.617Z,10.57
2023-02-23T14:53:04.547Z,10.58
2023-02-23T14:55:38.279Z,10.57
2023-02-23T14:58:25.848Z,10.53
2023-02-23T15:00:55.818Z,10.55
2023-02-23T15:03:25.964Z,10.55
2023-02-23T15:05:59.810Z,10.49
2023-02-23T15:08:32.934Z,10.48
2023-02-23T15:11:09.820Z,10.48
2023-02-23T15:13:44.035Z,10.46
2023-02-23T15:16:19.225Z,10.48
2023-02-23T15:18:49.277Z,10.48
2023-02-23T15:21:22.864Z,10.55
2023-02-23T15:23:55.044Z,10.58
2023-02-23T15:26:33.093Z,10.58
2023-02-23T15:29:09.841Z,10.55
2023-02-23T15:31:41.324Z,10.51
2023-02-23T15:34:13.281Z,10.46
2023-02-23T15:36:44.459Z,10.41
2023-02-23T15:39:20.377Z,10.39
2023-02-23T15:41:53.659Z,10.37
2023-02-23T15:44:32.247Z,10.37
2023-02-23T15:47:13.678Z,10.36
2023-02-23T15:49:44.117Z,10.32
2023-02-23T15:52:19.996Z,10.28
2023-02-23T15:54:57.017Z,10.30
2023-02-23T15:57:33.509Z,10.30
2023-02-23T16:00:12.093Z,10.29
2023-02-23T16:02:44.033Z,10.30
2023-02-23T16:05:24.013Z,10.24
2023-02-23T16:08:06.330Z,10.25
2023-02-23T16:10:48.193Z,10.25
2023-02-23T16:13:24.883Z,10.29
2023-02-23T16:15:58.221Z,10.30
2023-02-23T16:18:41.549Z,10.24
2023-02-23T16:21:17.281Z,10.22
2023-02-23T16:23:50.902Z,10.20
2023-02-23T16:26:24.304Z,10.16
2023-02-23T16:29:00.924Z,10.13
2023-02-23T16:31:44.942Z,10.08
2023-02-23T16:34:24.086Z,10.06
2023-02-23T16:36:58.143Z,10.10
2023-02-23T16:39:30.047Z,10.16
2023-02-23T16:42:01.579Z,10.17
2023-02-23T16:44:42.859Z,10.13
2023-02-23T16:47:29.389Z,10.17
2023-02-23T16:50:00.785Z,10.21
2023-02-23T16:52:32.815Z,10.22
2023-02-23T16:55:04.983Z,10.26
2023-02-23T16:57:42.138Z,10.29
2023-02-23T17:00:20.700Z,10.28
2023-02-23T17:02:50.975Z,10.30
2023-02-23T17:05:24.273Z,10.28
2023-02-23T17:07:54.841Z,10.26
2023-02-23T17:10:29.713Z,10.23
2023-02-23T17:13:04.467Z,10.29
2023-02-23T17:15:39.698Z,10.29
2023-02-23T17:18:09.595Z,10.28
2023-02-23T17:20:39.531Z,10.32
2023-02-23T17:23:09.690Z,10.30
2023-02-23T17:25:42.718Z,10.28
2023-02-23T17:28:12.598Z,10.23
2023-02-23T17:30:45.486Z,10.20
2023-02-23T17:33:16.014Z,10.20
2023-02-23T17:35:47.032Z,10.18
2023-02-23T17:38:21.614Z,10.19
2023-02-23T17:40:51.745Z,10.17
2023-02-23T17:43:24.052Z,10.17
2023-02-23T17:45:57.605Z,10.17
2023-02-23T17:48:28.589Z,10.19
2023-02-23T17:51:01.391Z,10.22
2023-02-23T17:53:31.712Z,10.20
2023-02-23T17:56:02.047Z,10.19
2023-02-23T17:58:31.982Z,10.22
2023-02-23T18:01:07.099Z,10.23
2023-02-23T18:03:39.120Z,10.24
2023-02-23T18:06:11.284Z,10.24
2023-02-23T18:08:42.658Z,10.23
2023-02-23T18:11:13.475Z,10.13
2023-02-23T18:13:43.338Z,10.07
2023-02-23T18:16:16.293Z,9.97
2023-02-23T18:18:48.666Z,9.95
2023-02-23T18:21:21.406Z,9.89
2023-02-23T18:23:52.211Z,9.85
2023-02-23T18:26:24.960Z,9.84
2023-02-23T18:28:57.178Z,9.81
2023-02-23T18:31:30.953Z,9.80
2023-02-23T18:34:02.235Z,9.75
2023-02-23T18:36:35.638Z,9.73
2023-02-23T18:39:08.918Z,9.77
2023-02-23T18:41:39.212Z,9.82
2023-02-23T18:44:11.351Z,9.84
2023-02-23T18:46:44.536Z,9.87
2023-02-23T18:49:16.941Z,9.87
2023-02-23T18:51:46.971Z,9.88
2023-02-23T18:54:19.030Z,9.91
2023-02-23T18:56:50.960Z,9.95
2023-02-23T18:59:20.932Z,9.95
2023-02-23T19:01:53.596Z,9.97
2023-02-23T19:04:23.526Z,9.99
2023-02-23T19:06:53.529Z,9.98
2023-02-23T19:09:23.722Z,9.95
2023-02-23T19:11:53.757Z,9.94
2023-02-23T19:14:40.834Z,9.97
2023-02-23T19:17:16.269Z,9.97
2023-02-23T19:19:46.460Z,10.00
2023-02-23T19:22:16.455Z,10.00
2023-02-23T19:24:48.458Z,9.99
2023-02-23T19:27:18.771Z,9.99
2023-02-23T19:29:48.786Z,10.00
2023-02-23T19:32:21.453Z,10.02
2023-02-23T19:34:51.565Z,10.02
2023-02-23T19:37:21.614Z,9.98
2023-02-23T19:39:51.658Z,10.00
2023-02-23T19:42:21.966Z,9.98
2023-02-23T19:44:51.961Z,10.00
2023-02-23T19:47:24.530Z,10.02
2023-02-23T19:49:55.255Z,10.03
2023-02-23T19:52:28.942Z,9.98
2023-02-23T19:54:58.859Z,9.99
2023-02-23T19:57:28.733Z,9.99
2023-02-23T19:59:58.729Z,9.96
2023-02-23T20:02:31.422Z,9.92
2023-02-23T20:05:01.919Z,9.91
2023-02-23T20:07:31.823Z,9.92
2023-02-23T20:10:05.816Z,9.90
2023-02-23T20:12:36.111Z,9.85
2023-02-23T20:15:07.204Z,9.83
2023-02-23T20:17:40.260Z,9.73
2023-02-23T20:20:12.645Z,9.73
2023-02-23T20:22:45.053Z,9.73
2023-02-23T20:25:18.087Z,9.68
2023-02-23T20:27:49.089Z,9.60
2023-02-23T20:30:20.700Z,9.43
2023-02-23T20:32:53.532Z,9.35
2023-02-23T20:35:26.631Z,9.25
2023-02-23T20:37:56.849Z,9.10
2023-02-23T20:40:27.612Z,9.07
2023-02-23T20:42:57.940Z,8.98
2023-02-23T20:45:28.736Z,8.92
2023-02-23T20:48:03.408Z,8.87
2023-02-23T20:50:34.144Z,8.77
2023-02-23T20:53:04.564Z,8.76
2023-02-23T20:55:35.918Z,8.62
2023-02-23T20:58:05.957Z,8.54
2023-02-23T21:00:36.145Z,8.46
2023-02-23T21:03:09.154Z,8.52
2023-02-23T21:05:43.580Z,8.52
2023-02-23T21:08:14.083Z,8.48
2023-02-23T21:10:44.617Z,8.44
2023-02-23T21:13:14.613Z,8.38
2023-02-23T21:15:46.028Z,8.38
2023-02-23T21:18:18.805Z,8.38
2023-02-23T21:20:48.771Z,8.48
2023-02-23T21:23:20.653Z,8.48
2023-02-23T21:25:53.257Z,8.42
2023-02-23T21:28:23.202Z,8.42
2023-02-23T21:30:53.263Z,8.43
2023-02-23T21:33:25.981Z,8.48
2023-02-23T21:35:58.999Z,8.50
2023-02-23T21:38:29.180Z,8.53
2023-02-23T21:40:59.202Z,8.57
2023-02-23T21:43:29.504Z,8.52
2023-02-23T21:45:59.459Z,8.52
2023-02-23T21:48:35.998Z,8.47
2023-02-23T21:51:07.390Z,8.46
2023-02-23T21:53:37.929Z,8.46
2023-02-23T21:56:12.005Z,8.41
2023-02-23T21:58:43.097Z,8.33
2023-02-23T22:01:15.046Z,8.20
2023-02-23T22:03:47.747Z,8.19
2023-02-23T22:06:19.345Z,8.18
2023-02-23T22:08:50.436Z,8.15
2023-02-23T22:11:24.968Z,8.21
2023-02-23T22:13:59.492Z,8.19
2023-02-23T22:16:31.468Z,8.16
2023-02-23T22:19:04.719Z,8.14
2023-02-23T22:21:36.917Z,8.18
2023-02-23T22:24:07.813Z,8.25
2023-02-23T22:26:39.933Z,8.32
2023-02-23T22:29:12.245Z,8.38
2023-02-23T22:31:42.801Z,8.43
2023-02-23T22:34:15.593Z,8.47
2023-02-23T22:36:46.703Z,8.46
2023-02-23T22:39:18.956Z,8.41
2023-02-23T22:41:49.876Z,8.40
2023-02-23T22:44:21.585Z,8.42
2023-02-23T22:46:53.346Z,8.42
2023-02-23T22:49:27.263Z,8.41
2023-02-23T22:51:57.217Z,8.34
2023-02-23T22:54:27.162Z,8.25
2023-02-23T22:56:57.336Z,8.08
2023-02-23T22:59:28.996Z,7.95
2023-02-23T23:02:00.526Z,7.89
2023-02-23T23:04:34.647Z,7.90
2023-02-23T23:07:06.476Z,7.96
2023-02-23T23:09:39.748Z,7.99
2023-02-23T23:12:12.051Z,7.97
2023-02-23T23:14:42.387Z,7.96
2023-02-23T23:17:14.065Z,7.97
2023-02-23T23:19:47.165Z,7.98
2023-02-23T23:22:17.653Z,7.87
2023-02-23T23:24:49.205Z,7.83
2023-02-23T23:27:20.132Z,7.78
2023-02-23T23:29:50.890Z,7.76
2023-02-23T23:32:27.987Z,7.78
2023-02-23T23:35:01.687Z,7.77
2023-02-23T23:37:31.880Z,7.78
2023-02-23T23:40:05.601Z,7.76
2023-02-23T23:42:35.542Z,7.78
2023-02-23T23:45:09.756Z,7.79
2023-02-23T23:47:39.749Z,7.76
2023-02-23T23:50:13.889Z,7.75
2023-02-23T23:52:45.200Z,7.80
2023-02-23T23:55:18.290Z,7.77
2023-02-23T23:57:48.316Z,7.75
